createdAt,value
2022-09-24T00:01:41.331Z,12.00
2022-09-24T00:04:12.061Z,12.35
2022-09-24T00:06:42.327Z,11.35
2022-09-24T00:09:10.578Z,12.48
2022-09-24T00:11:40.358Z,11.73
2022-09-24T00:14:08.808Z,11.63
2022-09-24T00:16:37.268Z,10.45
2022-09-24T00:19:06.140Z,12.88
2022-09-24T00:21:37.311Z,10.80
2022-09-24T00:24:07.934Z,11.55
2022-09-24T00:26:50.488Z,10.68
2022-09-24T00:29:21.833Z,10.50
2022-09-24T00:31:50.262Z,10.65
2022-09-24T00:34:18.569Z,10.35
2022-09-24T00:36:47.024Z,12.13
2022-09-24T00:39:15.380Z,11.02
2022-09-24T00:41:48.040Z,9.85
2022-09-24T00:44:49.210Z,10.57
2022-09-24T00:47:27.085Z,8.65
2022-09-24T00:50:01.815Z,9.82
2022-09-24T00:52:29.710Z,10.07
2022-09-24T00:54:58.015Z,10.38
2022-09-24T00:57:26.505Z,10.20
2022-09-24T00:59:56.373Z,9.95
2022-09-24T01:02:24.906Z,9.13
2022-09-24T01:04:56.575Z,9.88
2022-09-24T01:07:25.434Z,9.93
2022-09-24T01:09:53.861Z,11.32
2022-09-24T01:12:31.059Z,11.25
2022-09-24T01:15:16.778Z,11.23
2022-09-24T01:17:54.057Z,10.75
2022-09-24T01:20:43.542Z,12.50
2022-09-24T01:23:27.986Z,10.50
2022-09-24T01:26:12.079Z,10.55
2022-09-24T01:28:57.508Z,10.35
2022-09-24T01:31:32.516Z,10.57
2022-09-24T01:34:05.651Z,9.93
2022-09-24T01:36:36.813Z,9.90
2022-09-24T01:39:07.717Z,11.18
2022-09-24T01:41:38.470Z,10.63
2022-09-24T01:44:07.923Z,11.05
2022-09-24T01:46:39.593Z,11.10
2022-09-24T01:49:07.941Z,10.55
2022-09-24T01:51:43.946Z,12.73
2022-09-24T01:54:19.809Z,11.73
2022-09-24T01:56:51.895Z,11.75
2022-09-24T01:59:25.212Z,11.13
2022-09-24T02:01:58.867Z,11.70
2022-09-24T02:04:29.352Z,11.45
2022-09-24T02:07:01.910Z,12.13
2022-09-24T02:09:34.671Z,12.18
2022-09-24T02:12:11.089Z,12.10
2022-09-24T02:14:43.631Z,10.98
2022-09-24T02:17:15.078Z,11.68
2022-09-24T02:19:43.554Z,11.10
2022-09-24T02:22:13.672Z,11.68
2022-09-24T02:24:46.595Z,12.68
2022-09-24T02:27:14.703Z,12.40
2022-09-24T02:29:42.635Z,11.63
2022-09-24T02:32:17.341Z,14.20
2022-09-24T02:34:48.779Z,15.13
2022-09-24T02:37:17.929Z,12.13
2022-09-24T02:39:45.769Z,12.23
2022-09-24T02:42:16.230Z,12.27
2022-09-24T02:44:44.119Z,13.20
2022-09-24T02:47:13.307Z,13.20
2022-09-24T02:49:41.462Z,14.73
2022-09-24T02:52:10.283Z,13.95
2022-09-24T02:54:38.295Z,14.32
2022-09-24T02:57:06.378Z,13.98
2022-09-24T02:59:34.263Z,13.02
2022-09-24T03:02:02.447Z,13.90
2022-09-24T03:04:31.824Z,13.10
2022-09-24T03:06:59.728Z,13.38
2022-09-24T03:09:27.630Z,13.35
2022-09-24T03:12:00.567Z,11.90
2022-09-24T03:14:28.936Z,12.45
2022-09-24T03:16:56.777Z,13.93
2022-09-24T03:19:24.680Z,12.57
2022-09-24T03:21:53.880Z,11.15
2022-09-24T03:24:21.933Z,12.98
2022-09-24T03:26:49.762Z,12.30
2022-09-24T03:29:37.625Z,11.90
2022-09-24T03:32:04.520Z,11.82
2022-09-24T03:34:32.345Z,12.18
2022-09-24T03:37:01.509Z,13.25
2022-09-24T03:39:29.393Z,12.85
2022-09-24T03:41:57.208Z,12.00
2022-09-24T03:44:25.763Z,11.45
2022-09-24T03:46:53.626Z,12.27
2022-09-24T03:49:23.433Z,11.70
2022-09-24T03:51:51.301Z,11.65
2022-09-24T03:54:20.624Z,11.70
2022-09-24T03:56:48.477Z,11.68
2022-09-24T03:59:16.369Z,11.90
2022-09-24T04:01:44.245Z,11.38
2022-09-24T04:04:14.407Z,10.93
2022-09-24T04:06:42.293Z,13.88
2022-09-24T04:09:11.303Z,13.13
2022-09-24T04:11:40.510Z,13.60
2022-09-24T04:14:09.448Z,13.45
2022-09-24T04:16:37.428Z,13.88
2022-09-24T04:19:05.442Z,13.40
2022-09-24T04:21:33.324Z,13.55
2022-09-24T04:24:01.574Z,12.00
2022-09-24T04:26:29.411Z,12.15
2022-09-24T04:28:59.238Z,10.98
2022-09-24T04:31:27.591Z,10.35
2022-09-24T04:33:55.710Z,11.13
2022-09-24T04:36:23.567Z,12.60
2022-09-24T04:38:51.515Z,11.88
2022-09-24T04:41:19.374Z,11.95
2022-09-24T04:43:47.219Z,12.13
2022-09-24T04:46:19.097Z,12.60
2022-09-24T04:48:46.974Z,12.77
2022-09-24T04:51:16.729Z,12.13
2022-09-24T04:53:45.477Z,11.25
2022-09-24T04:56:13.611Z,12.50
2022-09-24T04:58:41.750Z,13.70
2022-09-24T05:01:09.826Z,13.20
2022-09-24T05:03:39.327Z,12.85
2022-09-24T05:06:07.351Z,12.63
2022-09-24T05:08:45.100Z,11.13
2022-09-24T05:11:14.068Z,13.02
2022-09-24T05:13:42.002Z,11.77
2022-09-24T05:16:09.928Z,11.50
2022-09-24T05:18:39.280Z,13.32
2022-09-24T05:21:07.528Z,12.32
2022-09-24T05:23:36.144Z,11.93
2022-09-24T05:26:21.520Z,13.60
2022-09-24T05:28:49.335Z,11.48
2022-09-24T05:31:17.546Z,11.65
2022-09-24T05:33:46.776Z,11.63
2022-09-24T05:36:14.684Z,11.38
2022-09-24T05:38:42.532Z,11.02
2022-09-24T05:41:10.709Z,11.07
2022-09-24T05:43:38.636Z,10.07
2022-09-24T05:46:07.981Z,10.02
2022-09-24T05:48:36.030Z,10.38
2022-09-24T05:51:05.586Z,9.50
2022-09-24T05:53:33.917Z,9.98
2022-09-24T05:56:02.426Z,9.75
2022-09-24T05:58:30.286Z,9.88
2022-09-24T06:00:59.926Z,9.35
2022-09-24T06:03:27.902Z,10.20
2022-09-24T06:05:56.402Z,10.15
2022-09-24T06:08:25.672Z,10.38
2022-09-24T06:10:54.215Z,8.68
2022-09-24T06:13:22.519Z,8.65
2022-09-24T06:15:50.397Z,8.93
2022-09-24T06:18:18.352Z,9.70
2022-09-24T06:20:46.938Z,9.73
2022-09-24T06:23:14.901Z,8.55
2022-09-24T06:25:44.101Z,8.77
2022-09-24T06:28:11.979Z,8.07
2022-09-24T06:30:41.286Z,7.80
2022-09-24T06:33:10.863Z,8.55
2022-09-24T06:35:40.001Z,8.68
2022-09-24T06:38:09.738Z,8.85
2022-09-24T06:40:38.023Z,8.70
2022-09-24T06:43:07.821Z,9.07
2022-09-24T06:45:36.271Z,7.82
2022-09-24T06:48:05.739Z,8.13
2022-09-24T06:50:35.815Z,8.02
2022-09-24T06:53:06.733Z,8.13
2022-09-24T06:55:35.188Z,8.20
2022-09-24T06:58:04.992Z,7.78
2022-09-24T07:00:34.919Z,7.40
2022-09-24T07:03:03.078Z,7.80
2022-09-24T07:05:30.945Z,7.50
2022-09-24T07:07:58.798Z,7.05
2022-09-24T07:10:28.042Z,7.25
2022-09-24T07:12:56.179Z,7.35
2022-09-24T07:15:24.033Z,7.93
2022-09-24T07:17:57.265Z,7.20
2022-09-24T07:20:28.067Z,7.85
2022-09-24T07:22:56.700Z,6.65
2022-09-24T07:25:24.904Z,6.72
2022-09-24T07:27:52.756Z,6.75
2022-09-24T07:30:20.902Z,6.95
2022-09-24T07:32:50.629Z,6.38
2022-09-24T07:35:21.070Z,5.82
2022-09-24T07:37:48.976Z,6.28
2022-09-24T07:40:17.268Z,6.45
2022-09-24T07:42:48.950Z,5.60
2022-09-24T07:45:17.400Z,5.57
2022-09-24T07:47:45.228Z,5.15
2022-09-24T07:50:13.698Z,6.07
2022-09-24T07:52:42.885Z,5.57
2022-09-24T07:55:10.906Z,4.82
2022-09-24T07:57:39.360Z,6.00
2022-09-24T08:00:09.088Z,4.60
2022-09-24T08:02:37.042Z,4.78
2022-09-24T08:05:05.387Z,4.45
2022-09-24T08:07:33.270Z,4.85
2022-09-24T08:10:02.847Z,5.28
2022-09-24T08:12:30.701Z,5.30
2022-09-24T08:14:58.645Z,5.35
2022-09-24T08:17:26.521Z,5.05
2022-09-24T08:19:56.786Z,6.50
2022-09-24T08:22:26.438Z,5.43
2022-09-24T08:24:54.850Z,6.40
2022-09-24T08:27:25.196Z,6.30
2022-09-24T08:29:53.156Z,5.88
2022-09-24T08:32:20.971Z,6.25
2022-09-24T08:34:48.870Z,6.28
2022-09-24T08:37:16.703Z,6.50
2022-09-24T08:39:44.539Z,6.85
2022-09-24T08:42:29.531Z,7.43
2022-09-24T08:45:17.388Z,7.22
2022-09-24T08:47:49.865Z,7.10
2022-09-24T08:50:21.447Z,7.55
2022-09-24T08:53:06.498Z,6.32
2022-09-24T08:55:38.680Z,7.53
2022-09-24T08:58:27.301Z,6.93
2022-09-24T09:01:06.136Z,7.50
2022-09-24T09:03:41.570Z,7.60
2022-09-24T09:06:17.891Z,7.20
2022-09-24T09:09:06.207Z,7.55
2022-09-24T09:11:36.906Z,8.10
2022-09-24T09:14:10.781Z,7.68
2022-09-24T09:16:47.365Z,8.13
2022-09-24T09:19:18.045Z,7.65
2022-09-24T09:21:52.546Z,7.43
2022-09-24T09:24:23.332Z,7.88
2022-09-24T09:26:55.160Z,8.05
2022-09-24T09:29:26.019Z,7.43
2022-09-24T09:32:04.070Z,6.90
2022-09-24T09:34:52.727Z,7.53
2022-09-24T09:37:29.128Z,7.47
2022-09-24T09:40:07.653Z,6.30
2022-09-24T09:42:37.078Z,5.95
2022-09-24T09:45:22.004Z,6.10
2022-09-24T09:47:57.495Z,5.97
2022-09-24T09:50:29.095Z,5.03
2022-09-24T09:52:57.317Z,5.22
2022-09-24T09:55:27.671Z,5.25
2022-09-24T09:58:08.962Z,5.40
2022-09-24T10:00:37.969Z,4.85
2022-09-24T10:03:22.427Z,4.80
2022-09-24T10:05:55.697Z,5.00
2022-09-24T10:08:24.786Z,5.90
2022-09-24T10:10:56.344Z,6.70
2022-09-24T10:13:25.182Z,6.13
2022-09-24T10:15:55.104Z,6.82
2022-09-24T10:18:30.623Z,6.65
2022-09-24T10:21:02.591Z,7.20
2022-09-24T10:23:36.527Z,7.72
2022-09-24T10:26:06.508Z,7.47
2022-09-24T10:28:53.889Z,7.43
2022-09-24T10:31:24.372Z,8.27
2022-09-24T10:33:56.283Z,7.53
2022-09-24T10:36:25.751Z,8.18
2022-09-24T10:39:04.125Z,7.65
2022-09-24T10:41:32.706Z,7.15
2022-09-24T10:44:05.609Z,6.93
2022-09-24T10:46:50.358Z,7.55
2022-09-24T10:49:32.457Z,6.65
2022-09-24T10:52:10.144Z,5.68
2022-09-24T10:54:53.259Z,6.40
2022-09-24T10:57:27.602Z,6.30
2022-09-24T11:00:04.467Z,5.50
2022-09-24T11:02:50.293Z,5.82
2022-09-24T11:05:23.105Z,5.65
2022-09-24T11:08:05.003Z,5.30
2022-09-24T11:10:51.654Z,5.00
2022-09-24T11:13:31.853Z,5.53
2022-09-24T11:16:35.793Z,5.72
2022-09-24T11:19:06.847Z,5.57
2022-09-24T11:21:57.555Z,5.82
2022-09-24T11:24:39.463Z,5.80
2022-09-24T11:27:28.036Z,4.75
2022-09-24T11:30:09.672Z,5.32
2022-09-24T11:32:48.463Z,5.32
2022-09-24T11:35:45.340Z,5.28
2022-09-24T11:38:19.082Z,4.75
2022-09-24T11:41:01.136Z,5.15
2022-09-24T11:43:46.647Z,5.53
2022-09-24T11:46:32.139Z,5.50
2022-09-24T11:49:22.720Z,5.97
2022-09-24T11:51:56.662Z,6.35
2022-09-24T11:54:30.604Z,6.28
2022-09-24T11:57:03.799Z,5.10
2022-09-24T11:59:39.928Z,5.22
2022-09-24T12:02:17.039Z,5.32
2022-09-24T12:04:53.420Z,5.13
2022-09-24T12:07:28.406Z,5.38
2022-09-24T12:10:02.175Z,6.22
2022-09-24T12:12:34.315Z,5.32
2022-09-24T12:15:08.623Z,5.38
2022-09-24T12:17:44.598Z,5.53
2022-09-24T12:20:20.307Z,5.55
2022-09-24T12:22:50.430Z,5.95
2022-09-24T12:25:19.593Z,5.30
2022-09-24T12:27:48.373Z,6.40
2022-09-24T12:30:44.355Z,6.40
2022-09-24T12:33:17.969Z,6.30
2022-09-24T12:35:56.346Z,6.68
2022-09-24T12:38:31.053Z,4.78
2022-09-24T12:41:25.811Z,5.90
2022-09-24T12:43:59.095Z,6.05
2022-09-24T12:46:30.963Z,5.70
2022-09-24T12:48:59.550Z,6.45
2022-09-24T12:51:36.275Z,6.32
2022-09-24T12:54:09.347Z,6.05
2022-09-24T12:56:38.972Z,6.05
2022-09-24T12:59:06.829Z,6.28
2022-09-24T13:01:35.728Z,6.57
2022-09-24T13:04:29.461Z,6.10
2022-09-24T13:06:57.486Z,7.18
2022-09-24T13:09:36.102Z,5.78
2022-09-24T13:12:20.608Z,6.10
2022-09-24T13:14:57.690Z,5.47
2022-09-24T13:17:26.063Z,5.97
2022-09-24T13:19:59.285Z,5.85
2022-09-24T13:22:29.859Z,5.45
2022-09-24T13:25:21.189Z,5.80
2022-09-24T13:28:00.159Z,4.85
2022-09-24T13:30:36.312Z,4.93
2022-09-24T13:33:12.074Z,4.40
2022-09-24T13:35:46.531Z,4.68
2022-09-24T13:38:22.347Z,4.63
2022-09-24T13:40:56.625Z,5.15
2022-09-24T13:43:39.282Z,4.97
2022-09-24T13:46:14.275Z,3.88
2022-09-24T13:48:48.299Z,4.30
2022-09-24T13:51:18.589Z,4.43
2022-09-24T13:53:52.447Z,3.92
2022-09-24T13:56:21.078Z,3.67
2022-09-24T13:58:51.399Z,3.47
2022-09-24T14:01:23.701Z,3.97
2022-09-24T14:03:57.059Z,3.47
2022-09-24T14:06:34.968Z,3.45
2022-09-24T14:09:03.407Z,3.88
2022-09-24T14:11:31.791Z,3.28
2022-09-24T14:14:12.183Z,3.45
2022-09-24T14:16:40.007Z,3.22
2022-09-24T14:19:07.997Z,3.00
2022-09-24T14:21:38.781Z,3.35
2022-09-24T14:24:16.812Z,3.72
2022-09-24T14:26:50.256Z,3.88
2022-09-24T14:29:23.148Z,3.63
2022-09-24T14:31:54.202Z,3.70
2022-09-24T14:34:27.349Z,3.70
2022-09-24T14:36:58.871Z,3.35
2022-09-24T14:39:29.529Z,3.30
2022-09-24T14:41:59.315Z,3.47
2022-09-24T14:44:30.537Z,3.80
2022-09-24T14:47:00.325Z,3.97
2022-09-24T14:49:30.726Z,3.38
2022-09-24T14:52:00.285Z,3.97
2022-09-24T14:54:33.276Z,4.00
2022-09-24T14:57:12.477Z,3.45
2022-09-24T14:59:42.747Z,3.95
2022-09-24T15:02:18.918Z,3.60
2022-09-24T15:04:48.531Z,4.10
2022-09-24T15:07:18.969Z,4.22
2022-09-24T15:09:51.287Z,3.55
2022-09-24T15:12:22.047Z,3.80
2022-09-24T15:14:59.338Z,3.83
2022-09-24T15:17:32.267Z,4.67
2022-09-24T15:20:00.349Z,4.35
2022-09-24T15:22:29.537Z,4.15
2022-09-24T15:25:01.485Z,3.95
2022-09-24T15:27:32.025Z,4.05
2022-09-24T15:30:02.700Z,4.15
2022-09-24T15:32:32.595Z,4.97
2022-09-24T15:35:01.969Z,3.83
2022-09-24T15:37:30.846Z,3.63
2022-09-24T15:40:01.253Z,4.22
2022-09-24T15:42:29.289Z,4.03
2022-09-24T15:44:59.191Z,5.00
2022-09-24T15:47:28.434Z,4.65
2022-09-24T15:49:56.245Z,3.50
2022-09-24T15:52:28.447Z,4.03
2022-09-24T15:54:58.537Z,3.85
2022-09-24T15:57:26.687Z,3.83
2022-09-24T15:59:55.348Z,3.88
2022-09-24T16:02:27.066Z,3.90
2022-09-24T16:05:02.694Z,4.18
2022-09-24T16:07:31.600Z,4.35
2022-09-24T16:09:59.484Z,4.45
2022-09-24T16:12:28.220Z,4.63
2022-09-24T16:14:59.243Z,4.40
2022-09-24T16:17:27.574Z,4.65
2022-09-24T16:19:56.880Z,5.32
2022-09-24T16:22:25.036Z,4.85
2022-09-24T16:24:54.062Z,4.90
2022-09-24T16:27:21.953Z,4.30
2022-09-24T16:29:49.844Z,4.90
2022-09-24T16:32:17.707Z,4.43
2022-09-24T16:34:45.673Z,5.20
2022-09-24T16:37:16.720Z,5.10
2022-09-24T16:39:44.564Z,5.03
2022-09-24T16:42:12.394Z,5.15
2022-09-24T16:44:40.242Z,4.90
2022-09-24T16:47:08.113Z,4.82
2022-09-24T16:49:35.943Z,5.00
2022-09-24T16:52:04.337Z,4.90
2022-09-24T16:54:33.721Z,5.47
2022-09-24T16:57:01.828Z,5.25
2022-09-24T16:59:29.744Z,4.82
2022-09-24T17:01:57.665Z,6.30
2022-09-24T17:04:27.119Z,5.60
2022-09-24T17:06:55.083Z,6.05
2022-09-24T17:09:40.973Z,5.50
2022-09-24T17:12:11.155Z,5.65
2022-09-24T17:14:40.019Z,5.75
2022-09-24T17:17:08.123Z,5.15
2022-09-24T17:19:36.002Z,5.43
2022-09-24T17:22:03.843Z,6.38
2022-09-24T17:24:32.524Z,6.43
2022-09-24T17:27:00.721Z,6.75
2022-09-24T17:29:31.765Z,6.75
2022-09-24T17:32:00.018Z,6.72
2022-09-24T17:34:28.533Z,6.47
2022-09-24T17:36:56.483Z,6.65
2022-09-24T17:39:24.530Z,7.80
2022-09-24T17:41:52.395Z,8.63
2022-09-24T17:44:20.468Z,8.93
2022-09-24T17:46:49.767Z,10.18
2022-09-24T17:49:17.771Z,11.13
2022-09-24T17:51:49.497Z,9.93
2022-09-24T17:54:21.440Z,10.02
2022-09-24T17:56:49.266Z,11.25
2022-09-24T17:59:17.087Z,12.45
2022-09-24T18:01:45.779Z,11.57
2022-09-24T18:04:17.644Z,13.15
2022-09-24T18:06:47.311Z,12.75
2022-09-24T18:09:16.312Z,12.40
2022-09-24T18:11:46.121Z,12.68
2022-09-24T18:14:15.445Z,11.90
2022-09-24T18:16:43.701Z,11.55
2022-09-24T18:19:14.990Z,10.80
2022-09-24T18:21:42.853Z,11.30
2022-09-24T18:24:11.640Z,11.30
2022-09-24T18:26:40.185Z,12.63
2022-09-24T18:29:12.431Z,10.57
2022-09-24T18:31:41.226Z,10.48
2022-09-24T18:34:10.900Z,11.30
2022-09-24T18:36:41.784Z,12.55
2022-09-24T18:39:13.237Z,12.57
2022-09-24T18:41:43.308Z,12.00
2022-09-24T18:44:11.239Z,12.40
2022-09-24T18:46:40.094Z,12.75
2022-09-24T18:49:08.287Z,12.50
2022-09-24T18:51:38.582Z,13.45
2022-09-24T18:54:09.803Z,13.23
2022-09-24T18:56:37.763Z,13.27
2022-09-24T18:59:09.795Z,13.40
2022-09-24T19:01:38.219Z,13.25
2022-09-24T19:04:07.856Z,12.05
2022-09-24T19:06:36.939Z,15.57
2022-09-24T19:09:05.704Z,17.65
2022-09-24T19:11:35.591Z,17.50
2022-09-24T19:14:03.793Z,21.50
2022-09-24T19:16:32.012Z,17.88
2022-09-24T19:19:01.828Z,14.98
2022-09-24T19:21:29.949Z,15.75
2022-09-24T19:23:59.197Z,16.10
2022-09-24T19:26:28.965Z,16.58
2022-09-24T19:28:58.715Z,14.23
2022-09-24T19:31:29.565Z,12.38
2022-09-24T19:33:58.927Z,13.23
2022-09-24T19:36:26.849Z,14.50
2022-09-24T19:38:54.746Z,13.80
2022-09-24T19:41:25.074Z,13.05
2022-09-24T19:43:55.418Z,13.68
2022-09-24T19:46:26.413Z,14.10
2022-09-24T19:48:55.698Z,14.88
2022-09-24T19:51:25.676Z,13.68
2022-09-24T19:53:55.334Z,14.30
2022-09-24T19:56:25.393Z,13.82
2022-09-24T19:58:54.660Z,14.95
2022-09-24T20:01:25.660Z,13.63
2022-09-24T20:03:53.617Z,14.38
2022-09-24T20:06:23.575Z,13.70
2022-09-24T20:08:51.782Z,13.45
2022-09-24T20:11:21.512Z,13.45
2022-09-24T20:13:49.847Z,12.02
2022-09-24T20:16:19.940Z,11.73
2022-09-24T20:18:53.777Z,10.90
2022-09-24T20:21:21.628Z,10.98
2022-09-24T20:23:50.130Z,11.43
2022-09-24T20:26:36.075Z,10.43
2022-09-24T20:29:06.708Z,12.13
2022-09-24T20:31:34.947Z,10.68
2022-09-24T20:34:04.591Z,11.48
2022-09-24T20:36:32.569Z,11.88
2022-09-24T20:39:00.559Z,11.32
2022-09-24T20:41:28.435Z,12.70
2022-09-24T20:43:56.382Z,11.73
2022-09-24T20:46:26.003Z,11.43
2022-09-24T20:48:58.019Z,11.82
2022-09-24T20:51:28.517Z,12.98
2022-09-24T20:53:57.995Z,11.85
2022-09-24T20:56:26.732Z,11.40
2022-09-24T20:58:55.005Z,11.95
2022-09-24T21:01:23.467Z,11.80
2022-09-24T21:03:51.915Z,12.45
2022-09-24T21:06:22.769Z,12.55
2022-09-24T21:08:52.956Z,12.20
2022-09-24T21:11:22.614Z,13.20
2022-09-24T21:13:51.863Z,14.45
2022-09-24T21:16:21.078Z,12.82
2022-09-24T21:18:50.123Z,12.68
2022-09-24T21:21:19.280Z,14.38
2022-09-24T21:23:48.945Z,15.85
2022-09-24T21:26:19.984Z,14.40
2022-09-24T21:28:49.472Z,14.75
2022-09-24T21:31:21.039Z,13.75
2022-09-24T21:33:52.449Z,13.82
2022-09-24T21:36:21.802Z,13.50
2022-09-24T21:38:54.971Z,12.05
2022-09-24T21:41:25.997Z,14.25
2022-09-24T21:43:55.401Z,12.52
2022-09-24T21:46:24.035Z,12.40
2022-09-24T21:48:52.411Z,13.02
2022-09-24T21:51:22.138Z,12.10
2022-09-24T21:53:50.902Z,11.82
2022-09-24T21:56:19.072Z,11.23
2022-09-24T21:58:48.619Z,10.90
2022-09-24T22:01:18.717Z,10.65
2022-09-24T22:03:47.166Z,9.68
2022-09-24T22:06:15.288Z,9.35
2022-09-24T22:08:44.853Z,8.10
2022-09-24T22:11:13.362Z,8.32
2022-09-24T22:13:41.858Z,10.27
2022-09-24T22:16:12.959Z,12.55
2022-09-24T22:18:40.974Z,13.85
2022-09-24T22:21:11.064Z,16.50
2022-09-24T22:23:39.520Z,18.00
2022-09-24T22:26:09.077Z,18.85
2022-09-24T22:28:38.136Z,17.90
2022-09-24T22:31:08.418Z,19.00
2022-09-24T22:33:55.609Z,17.38
2022-09-24T22:36:24.478Z,17.13
2022-09-24T22:38:53.645Z,16.98
2022-09-24T22:41:21.539Z,16.35
2022-09-24T22:43:49.514Z,16.58
2022-09-24T22:46:17.973Z,16.55
2022-09-24T22:48:47.982Z,17.92
2022-09-24T22:51:16.074Z,20.33
2022-09-24T22:53:43.898Z,19.80
2022-09-24T22:56:14.374Z,19.55
2022-09-24T22:58:44.828Z,19.25
2022-09-24T23:01:15.108Z,19.58
2022-09-24T23:03:44.113Z,19.98
2022-09-24T23:06:13.361Z,18.98
2022-09-24T23:08:42.636Z,19.35
2022-09-24T23:11:12.392Z,20.17
2022-09-24T23:13:41.663Z,19.35
2022-09-24T23:16:11.635Z,19.33
2022-09-24T23:18:39.909Z,20.50
2022-09-24T23:21:09.087Z,18.65
2022-09-24T23:23:38.333Z,25.13
2022-09-24T23:26:08.041Z,21.40
2022-09-24T23:28:37.057Z,23.13
2022-09-24T23:31:05.513Z,22.58
2022-09-24T23:33:34.438Z,23.95
2022-09-24T23:36:03.765Z,24.75
2022-09-24T23:38:31.640Z,24.95
2022-09-24T23:41:02.133Z,23.23
2022-09-24T23:43:30.270Z,24.70
2022-09-24T23:45:58.471Z,25.10
2022-09-24T23:48:26.645Z,25.65
2022-09-24T23:50:55.052Z,25.13
2022-09-24T23:53:22.874Z,25.10
2022-09-24T23:55:50.923Z,25.25
2022-09-24T23:58:21.421Z,24.17
